Terminal Aerodrome Forecast
Issued by NWS

Home | Current Version | Previous Version | Text Only | Print | Product List | Glossary On
Versions: 1 2 3 4 5 6 7 8 9 10 11 12 13 14 15 16 17
000
FTUS45 KTFX 232300
TAFGTF
TAF
KGTF 232338Z 2400/2424 VRB06KT P6SM SCT080 SCT180
      TEMPO 2400/2404 VRB20G45KT 5SM -TSRA BKN050CB
     FM241300 24015KT P6SM SCT120
     FM241900 24025G38KT P6SM SKC=

USA.gov is the U.S. government's official web portal to all federal, state and local government web resources and services.